Time;durP1;ratioP1;P1;durP2;ratioP2;P2;SDS_P1;SDS_P2;PMS_P1;PMS_P2;Temp;Humidity;BMP_temperature;BMP_pressure;BME280_temperature;BME280_humidity;BME280_pressure;Samples;Min_cycle;Max_cycle;Signal;HPM_P1;HPM_P2
2021/04/04 00:02:00;;;;;;;26.08;24.23;;;4.90;67.90;;;;;;5112131;28;20537;-77
2021/04/04 00:04:26;;;;;;;26.15;24.35;;;5.00;67.70;;;;;;5112076;28;20619;-76
2021/04/04 00:06:54;;;;;;;27.13;25.55;;;5.00;67.60;;;;;;5112058;28;20255;-77
2021/04/04 00:09:20;;;;;;;26.30;24.50;;;4.80;68.10;;;;;;5112095;28;20321;-76
2021/04/04 00:11:48;;;;;;;26.40;24.90;;;4.70;68.80;;;;;;5112281;28;20203;-77
2021/04/04 00:14:14;;;;;;;25.13;23.73;;;4.60;68.90;;;;;;5112189;28;20732;-77
2021/04/04 00:16:41;;;;;;;26.55;24.67;;;4.60;69.10;;;;;;5111578;28;20228;-77
2021/04/04 00:19:07;;;;;;;27.48;25.40;;;4.70;69.00;;;;;;5112341;28;20206;-76
2021/04/04 00:21:35;;;;;;;26.58;24.95;;;4.70;68.80;;;;;;5112389;28;20194;-77
2021/04/04 00:24:04;;;;;;;28.30;26.30;;;4.60;68.90;;;;;;5112156;28;20309;-76
2021/04/04 00:26:30;;;;;;;27.70;25.70;;;4.60;69.30;;;;;;5115661;28;20671;-77
2021/04/04 00:28:57;;;;;;;26.58;25.00;;;4.60;69.20;;;;;;5115938;28;20289;-77
2021/04/04 00:31:23;;;;;;;26.60;25.10;;;4.50;69.60;;;;;;5116008;28;20286;-77
2021/04/04 00:33:49;;;;;;;26.15;24.60;;;4.50;69.60;;;;;;5115966;28;20575;-77
2021/04/04 00:36:16;;;;;;;26.88;25.27;;;4.40;69.90;;;;;;5115588;28;20198;-76
2021/04/04 00:38:42;;;;;;;28.00;25.67;;;4.40;69.80;;;;;;5115939;28;20685;-76
2021/04/04 00:41:10;;;;;;;26.77;25.17;;;4.30;70.20;;;;;;5115858;28;20362;-76
2021/04/04 00:43:36;;;;;;;27.27;25.73;;;4.20;70.40;;;;;;5115782;28;20613;-76
2021/04/04 00:46:03;;;;;;;25.98;24.20;;;4.10;70.80;;;;;;5115295;28;20198;-77
2021/04/04 00:48:29;;;;;;;26.23;24.63;;;4.20;70.60;;;;;;5115895;28;20201;-77
2021/04/04 00:50:56;;;;;;;26.85;25.15;;;4.20;70.00;;;;;;5115710;28;20225;-76
2021/04/04 00:53:23;;;;;;;27.33;25.45;;;4.10;70.50;;;;;;5115681;28;20293;-76
2021/04/04 00:55:49;;;;;;;25.88;24.40;;;4.00;71.80;;;;;;5114972;28;20194;-76
2021/04/04 00:58:17;;;;;;;27.02;25.10;;;4.10;71.10;;;;;;5115676;28;20289;-76
2021/04/04 01:00:44;;;;;;;26.88;25.23;;;4.10;70.70;;;;;;5115559;28;20628;-77
2021/04/04 01:03:10;;;;;;;26.38;24.88;;;4.00;70.80;;;;;;5115638;28;20278;-77
2021/04/04 01:05:39;;;;;;;25.92;24.13;;;4.00;71.00;;;;;;5114433;28;20401;-76
2021/04/04 01:08:07;;;;;;;27.15;24.90;;;3.90;71.10;;;;;;5115429;28;20683;-76
2021/04/04 01:10:35;;;;;;;27.45;25.85;;;4.00;71.10;;;;;;5115128;28;20637;-76
2021/04/04 01:13:14;;;;;;;27.20;25.52;;;4.00;71.00;;;;;;5115036;28;20300;-76
2021/04/04 01:15:46;;;;;;;27.60;25.90;;;4.00;70.90;;;;;;5114619;28;20614;-76
2021/04/04 01:18:18;;;;;;;27.52;25.92;;;3.90;71.30;;;;;;5115215;28;20285;-76
2021/04/04 01:20:51;;;;;;;27.02;25.25;;;3.80;71.90;;;;;;5115314;28;20222;-76
2021/04/04 01:23:39;;;;;;;27.48;25.58;;;3.70;72.10;;;;;;5115062;28;20255;-76
2021/04/04 01:26:15;;;;;;;27.20;25.63;;;3.70;72.10;;;;;;5114687;28;20222;-76
2021/04/04 01:28:44;;;;;;;28.33;26.48;;;3.60;72.10;;;;;;5115130;28;20228;-77
2021/04/04 01:31:11;;;;;;;27.17;25.52;;;3.60;72.20;;;;;;5114805;28;20309;-76
2021/04/04 01:33:40;;;;;;;26.38;24.77;;;3.60;72.20;;;;;;5114831;28;20292;-76
2021/04/04 01:36:11;;;;;;;27.15;25.38;;;3.70;71.80;;;;;;5114081;28;20208;-76
2021/04/04 01:38:40;;;;;;;27.15;25.15;;;3.70;71.90;;;;;;5114957;28;20206;-76
2021/04/04 01:41:13;;;;;;;27.95;26.23;;;3.70;71.50;;;;;;5114734;28;20218;-76
2021/04/04 01:43:44;;;;;;;27.38;25.77;;;3.80;71.10;;;;;;5114686;28;20197;-76
2021/04/04 01:46:11;;;;;;;28.30;26.70;;;3.80;71.30;;;;;;5114291;28;20319;-77
2021/04/04 01:48:40;;;;;;;27.00;25.20;;;3.70;71.50;;;;;;5114927;28;20703;-77
2021/04/04 01:51:08;;;;;;;26.38;24.92;;;3.60;71.80;;;;;;5115080;28;20296;-77
2021/04/04 01:53:36;;;;;;;25.73;24.33;;;3.60;72.00;;;;;;5114635;28;20235;-76
2021/04/04 01:56:03;;;;;;;26.15;24.58;;;3.60;72.10;;;;;;5114029;28;20193;-76
2021/04/04 01:58:31;;;;;;;26.98;25.13;;;3.50;72.20;;;;;;5114341;28;20800;-76
2021/04/04 02:01:00;;;;;;;25.23;23.80;;;3.60;72.30;;;;;;5114348;28;20307;-76
2021/04/04 02:03:27;;;;;;;26.90;25.17;;;3.40;72.70;;;;;;5114291;28;20204;-76
2021/04/04 02:05:54;;;;;;;27.38;25.88;;;3.40;72.80;;;;;;5113297;28;20288;-76
2021/04/04 02:08:22;;;;;;;25.80;24.17;;;3.40;72.70;;;;;;5114259;28;20192;-76
2021/04/04 02:10:50;;;;;;;25.52;24.13;;;3.40;72.90;;;;;;5114032;28;20300;-76
2021/04/04 02:13:19;;;;;;;26.75;25.00;;;3.30;73.10;;;;;;5114041;28;20212;-76
2021/04/04 02:15:46;;;;;;;26.25;24.65;;;3.30;73.20;;;;;;5113649;28;20644;-77
2021/04/04 02:18:14;;;;;;;26.33;24.40;;;3.30;73.30;;;;;;5114229;28;20725;-77
2021/04/04 02:20:41;;;;;;;27.63;25.90;;;3.30;73.00;;;;;;5114029;28;20285;-76
2021/04/04 02:23:11;;;;;;;26.92;25.42;;;3.20;73.30;;;;;;5114093;28;20197;-77
2021/04/04 02:25:38;;;;;;;26.63;25.02;;;3.00;73.90;;;;;;5113573;28;20220;-76
2021/04/04 02:28:06;;;;;;;26.88;24.63;;;3.10;73.90;;;;;;5113631;28;20244;-76
2021/04/04 02:30:33;;;;;;;26.60;24.85;;;3.10;73.40;;;;;;5113746;28;20349;-76
2021/04/04 02:33:05;;;;;;;25.75;24.25;;;3.10;73.40;;;;;;5113702;28;20199;-76
2021/04/04 02:35:35;;;;;;;27.75;25.80;;;3.10;73.30;;;;;;5113519;28;20219;-75
2021/04/04 02:38:06;;;;;;;25.50;24.00;;;3.10;73.30;;;;;;5113952;28;20603;-76
2021/04/04 02:40:32;;;;;;;27.63;25.50;;;3.10;73.30;;;;;;5113542;28;20216;-76
2021/04/04 02:43:01;;;;;;;26.58;25.08;;;3.00;73.40;;;;;;5113513;28;20200;-76
2021/04/04 02:45:28;;;;;;;26.42;24.73;;;3.00;73.60;;;;;;5113193;28;20241;-76
2021/04/04 02:47:59;;;;;;;26.52;24.92;;;3.00;73.50;;;;;;5113036;27;20736;-76
2021/04/04 02:50:27;;;;;;;26.02;24.40;;;2.90;73.70;;;;;;5113460;28;20647;-76
2021/04/04 02:52:58;;;;;;;27.25;25.60;;;2.90;73.80;;;;;;5113239;28;20287;-76
2021/04/04 02:55:27;;;;;;;28.23;26.15;;;3.00;73.90;;;;;;5113345;28;20710;-75
2021/04/04 02:57:55;;;;;;;26.80;25.10;;;3.00;73.70;;;;;;5113383;28;20211;-76
2021/04/04 03:00:22;;;;;;;28.20;26.65;;;3.00;73.70;;;;;;5113275;28;20697;-76
2021/04/04 03:02:50;;;;;;;27.85;26.25;;;2.90;76.50;;;;;;5113520;28;20606;-77
2021/04/04 03:05:17;;;;;;;26.50;24.88;;;2.80;79.20;;;;;;5112670;27;20218;-77
2021/04/04 03:07:45;;;;;;;25.85;24.25;;;2.80;81.30;;;;;;5112922;28;20200;-77
2021/04/04 03:10:13;;;;;;;26.48;24.80;;;2.90;78.00;;;;;;5113034;28;20226;-77
2021/04/04 03:12:41;;;;;;;26.33;24.73;;;2.90;76.20;;;;;;5113021;28;20705;-77
2021/04/04 03:15:10;;;;;;;26.38;24.88;;;2.90;75.00;;;;;;5113405;28;20202;-76
2021/04/04 03:17:41;;;;;;;25.50;23.90;;;2.90;74.60;;;;;;5112479;28;20729;-76
2021/04/04 03:20:10;;;;;;;26.17;24.73;;;2.90;74.70;;;;;;5112923;28;20272;-76
2021/04/04 03:22:40;;;;;;;27.67;26.17;;;2.90;74.70;;;;;;5112841;28;20298;-76
2021/04/04 03:25:08;;;;;;;27.20;25.45;;;2.80;74.60;;;;;;5112760;28;20249;-76
2021/04/04 03:27:36;;;;;;;26.38;24.52;;;2.70;75.60;;;;;;5112204;28;20656;-76
2021/04/04 03:30:06;;;;;;;24.85;23.25;;;2.70;75.60;;;;;;5112625;28;20219;-76
2021/04/04 03:32:34;;;;;;;26.92;25.33;;;2.70;75.20;;;;;;5112773;28;20195;-77
2021/04/04 03:35:02;;;;;;;26.25;24.58;;;2.80;74.60;;;;;;5112714;28;20195;-76
2021/04/04 03:37:30;;;;;;;26.90;24.92;;;2.70;74.70;;;;;;5112287;28;20282;-76
2021/04/04 03:39:56;;;;;;;25.98;24.13;;;2.70;75.10;;;;;;5112614;28;20217;-76
2021/04/04 03:42:24;;;;;;;25.60;23.98;;;2.60;75.40;;;;;;5112751;28;20226;-76
2021/04/04 03:44:52;;;;;;;26.30;24.88;;;2.60;75.60;;;;;;5112745;28;20269;-77
2021/04/04 03:47:19;;;;;;;26.15;24.63;;;2.60;75.40;;;;;;5112463;28;20286;-77
2021/04/04 03:49:46;;;;;;;25.92;24.23;;;2.60;75.50;;;;;;5112548;28;20305;-77
2021/04/04 03:52:13;;;;;;;25.77;24.25;;;2.50;75.80;;;;;;5112556;28;20572;-76
2021/04/04 03:54:41;;;;;;;26.15;24.58;;;2.50;75.80;;;;;;5112772;28;20333;-76
2021/04/04 03:57:08;;;;;;;26.52;24.73;;;2.50;75.80;;;;;;5111828;28;20198;-76
2021/04/04 03:59:38;;;;;;;25.90;24.40;;;2.50;75.90;;;;;;5115230;28;20235;-76
2021/04/04 04:02:06;;;;;;;25.38;23.98;;;2.50;75.90;;;;;;5116781;28;20222;-76
2021/04/04 04:04:33;;;;;;;27.35;25.60;;;2.50;76.00;;;;;;5116229;28;20576;-76
2021/04/04 04:07:00;;;;;;;26.00;24.38;;;2.60;75.70;;;;;;5116403;27;20204;-76
2021/04/04 04:09:27;;;;;;;25.90;24.30;;;2.50;75.80;;;;;;5116378;28;20450;-75
2021/04/04 04:11:54;;;;;;;24.88;23.45;;;2.40;80.70;;;;;;5116503;28;20238;-76
2021/04/04 04:14:23;;;;;;;26.58;24.63;;;2.40;77.40;;;;;;5116307;28;20203;-76
2021/04/04 04:16:51;;;;;;;27.38;25.77;;;2.30;76.80;;;;;;5115908;28;20207;-76
2021/04/04 04:19:18;;;;;;;25.40;23.90;;;2.40;76.40;;;;;;5116386;28;20214;-76
2021/04/04 04:21:46;;;;;;;25.90;24.05;;;2.40;75.90;;;;;;5116429;28;20226;-76
2021/04/04 04:24:14;;;;;;;25.10;23.65;;;2.40;76.00;;;;;;5116249;28;20214;-76
2021/04/04 04:26:42;;;;;;;26.73;24.98;;;2.40;75.90;;;;;;5115656;28;20200;-76
2021/04/04 04:29:11;;;;;;;26.23;24.58;;;2.40;75.90;;;;;;5116232;28;20202;-76
2021/04/04 04:31:40;;;;;;;26.30;24.60;;;2.40;75.80;;;;;;5116197;28;20315;-76
2021/04/04 04:34:09;;;;;;;25.33;23.85;;;2.30;76.10;;;;;;5116134;28;20227;-76
2021/04/04 04:36:37;;;;;;;26.70;24.90;;;2.30;76.40;;;;;;5115584;28;20197;-76
2021/04/04 04:39:06;;;;;;;26.27;24.38;;;2.30;76.40;;;;;;5115903;28;20285;-76
2021/04/04 04:41:35;;;;;;;25.98;24.27;;;2.20;76.50;;;;;;5115867;28;20198;-76
2021/04/04 04:44:04;;;;;;;27.15;25.17;;;2.30;76.50;;;;;;5115860;28;20214;-76
2021/04/04 04:46:32;;;;;;;26.00;24.40;;;2.20;76.70;;;;;;5115239;28;20285;-76
2021/04/04 04:48:59;;;;;;;25.27;23.88;;;2.20;76.90;;;;;;5115844;28;20312;-76
2021/04/04 04:51:26;;;;;;;25.45;23.85;;;2.10;77.00;;;;;;5115698;28;20244;-76
2021/04/04 04:53:54;;;;;;;25.08;23.58;;;2.10;77.50;;;;;;5115784;28;20281;-76
2021/04/04 04:56:22;;;;;;;26.42;24.75;;;2.00;77.70;;;;;;5115240;28;20283;-76
2021/04/04 04:58:49;;;;;;;26.90;25.00;;;2.00;77.70;;;;;;5115819;27;20672;-76
2021/04/04 05:01:17;;;;;;;26.67;24.98;;;2.10;77.80;;;;;;5115622;28;20264;-76
2021/04/04 05:03:44;;;;;;;27.75;25.55;;;2.20;77.10;;;;;;5115405;28;20277;-76
2021/04/04 05:06:12;;;;;;;27.75;25.25;;;2.10;77.20;;;;;;5114356;28;20605;-75
2021/04/04 05:08:42;;;;;;;26.83;24.83;;;2.10;77.40;;;;;;5115420;28;20289;-77
2021/04/04 05:11:13;;;;;;;24.63;22.92;;;2.20;77.00;;;;;;5114708;28;20301;-76
2021/04/04 05:13:40;;;;;;;25.08;23.50;;;2.30;76.80;;;;;;5115231;28;20213;-76
2021/04/04 05:16:10;;;;;;;25.70;24.15;;;2.30;76.80;;;;;;5114808;28;20194;-76
2021/04/04 05:18:37;;;;;;;26.27;24.67;;;2.30;76.70;;;;;;5115214;28;20206;-76
2021/04/04 05:21:05;;;;;;;25.73;24.20;;;2.40;76.40;;;;;;5115099;28;20215;-76
2021/04/04 05:23:32;;;;;;;24.67;23.23;;;2.40;76.30;;;;;;5115487;28;20285;-76
2021/04/04 05:25:59;;;;;;;25.30;23.75;;;2.40;76.30;;;;;;5114389;28;20269;-76
2021/04/04 05:28:26;;;;;;;25.88;24.15;;;2.40;76.20;;;;;;5115100;28;20294;-76
2021/04/04 05:30:52;;;;;;;25.65;23.88;;;2.40;76.40;;;;;;5115070;28;20600;-76
2021/04/04 05:33:20;;;;;;;25.75;24.25;;;2.50;76.20;;;;;;5114978;28;20191;-76
2021/04/04 05:35:46;;;;;;;24.65;23.15;;;2.60;75.70;;;;;;5114593;28;20225;-75
2021/04/04 05:38:13;;;;;;;25.52;23.75;;;2.70;75.40;;;;;;5115030;28;20203;-76
2021/04/04 05:40:39;;;;;;;25.48;23.90;;;2.70;75.20;;;;;;5114850;28;20255;-76
2021/04/04 05:43:12;;;;;;;25.45;23.85;;;2.60;75.30;;;;;;5115133;28;20204;-76
2021/04/04 05:45:46;;;;;;;26.20;24.55;;;2.70;75.30;;;;;;5114556;28;20592;-77
2021/04/04 05:48:34;;;;;;;25.25;23.45;;;2.60;75.50;;;;;;5114977;28;20285;-76
2021/04/04 05:51:16;;;;;;;25.60;23.55;;;2.70;75.30;;;;;;5114627;28;20763;-76
2021/04/04 05:53:53;;;;;;;26.05;24.25;;;2.80;75.30;;;;;;5114744;28;20639;-76
2021/04/04 05:56:25;;;;;;;27.27;25.50;;;2.90;75.00;;;;;;5114102;28;20199;-77
2021/04/04 05:59:00;;;;;;;24.20;22.85;;;3.00;74.50;;;;;;5114721;28;20196;-76
2021/04/04 06:01:59;;;;;;;25.98;24.02;;;3.10;74.30;;;;;;5114543;28;20205;-76
2021/04/04 06:04:53;;;;;;;25.63;23.73;;;3.20;73.90;;;;;;5113874;28;20219;-75
2021/04/04 06:08:01;;;;;;;24.70;23.30;;;3.20;73.70;;;;;;5112129;28;20298;-76
2021/04/04 06:10:40;;;;;;;26.90;25.15;;;3.30;73.70;;;;;;5114126;28;20221;-76
2021/04/04 06:13:16;;;;;;;25.55;23.73;;;3.40;73.40;;;;;;5114216;28;20208;-76
2021/04/04 06:15:56;;;;;;;26.67;25.05;;;3.40;73.40;;;;;;5113762;28;20292;-76
2021/04/04 06:18:35;;;;;;;25.25;23.58;;;3.40;73.80;;;;;;5114127;28;20201;-76
2021/04/04 06:21:10;;;;;;;26.08;24.38;;;3.60;73.50;;;;;;5113941;28;20773;-76
2021/04/04 06:23:44;;;;;;;26.35;24.83;;;3.70;73.30;;;;;;5113181;28;20703;-76
2021/04/04 06:26:24;;;;;;;26.42;24.65;;;3.80;72.80;;;;;;5113540;28;20303;-76
2021/04/04 06:29:00;;;;;;;25.92;24.17;;;3.90;72.30;;;;;;5114047;28;20197;-76
2021/04/04 06:31:36;;;;;;;25.30;23.70;;;4.10;71.80;;;;;;5113847;28;20282;-76
2021/04/04 06:34:09;;;;;;;26.45;24.40;;;4.20;71.80;;;;;;5127485;22;20247;-76
2021/04/04 06:36:43;;;;;;;25.20;23.50;;;4.30;71.20;;;;;;5133243;27;20285;-76
2021/04/04 06:39:30;;;;;;;24.80;23.20;;;4.40;71.00;;;;;;5134183;27;20197;-76
2021/04/04 06:42:10;;;;;;;25.60;23.98;;;4.50;70.20;;;;;;5134336;27;20232;-77
2021/04/04 06:45:00;;;;;;;26.92;25.08;;;4.70;70.10;;;;;;5134098;27;20276;-77
2021/04/04 06:47:35;;;;;;;26.30;24.30;;;4.80;69.60;;;;;;5133767;27;20253;-77
2021/04/04 06:50:08;;;;;;;26.42;24.83;;;5.00;69.30;;;;;;5134191;27;20225;-76
2021/04/04 06:52:48;;;;;;;26.98;25.05;;;5.20;68.70;;;;;;5133960;27;20232;-77
2021/04/04 06:55:21;;;;;;;26.38;24.50;;;5.40;67.90;;;;;;5134055;27;20189;-76
2021/04/04 06:58:04;;;;;;;26.35;24.42;;;5.50;67.30;;;;;;5133848;27;20286;-77
2021/04/04 07:00:37;;;;;;;26.83;25.05;;;5.70;67.10;;;;;;5133907;27;20249;-77
2021/04/04 07:03:07;;;;;;;27.60;25.50;;;5.80;66.10;;;;;;5133822;27;20202;-77
2021/04/04 07:05:40;;;;;;;27.85;25.90;;;5.90;66.00;;;;;;5133012;27;20224;-76
2021/04/04 07:08:59;;;;;;;27.75;25.95;;;6.00;65.50;;;;;;5133830;27;20248;-77
2021/04/04 07:11:34;;;;;;;26.73;25.02;;;6.10;64.90;;;;;;5133547;27;20198;-77
2021/04/04 07:14:30;;;;;;;28.35;26.45;;;6.20;64.20;;;;;;5133795;27;20203;-77
2021/04/04 07:17:32;;;;;;;29.00;27.02;;;6.30;63.90;;;;;;5126411;27;20201;-77
2021/04/04 07:20:22;;;;;;;28.42;26.20;;;6.40;63.70;;;;;;5129999;27;20559;-77
2021/04/04 07:23:25;;;;;;;27.27;25.58;;;6.50;63.30;;;;;;5133756;27;20208;-77
2021/04/04 07:26:01;;;;;;;27.70;25.80;;;6.70;63.20;;;;;;5130975;27;20646;-77
2021/04/04 07:29:09;;;;;;;27.08;25.40;;;6.90;62.50;;;;;;5134051;27;20277;-77
2021/04/04 07:31:42;;;;;;;28.17;26.27;;;7.00;61.90;;;;;;5137371;27;20242;-77
2021/04/04 07:34:15;;;;;;;27.83;25.55;;;7.30;61.50;;;;;;5133922;27;20241;-77
2021/04/04 07:37:00;;;;;;;28.30;26.55;;;7.30;61.00;;;;;;5133461;27;20278;-77
2021/04/04 07:39:33;;;;;;;28.17;26.25;;;7.30;61.10;;;;;;5133376;27;20219;-77
2021/04/04 07:42:12;;;;;;;29.42;27.33;;;7.40;60.70;;;;;;5133285;27;20288;-77
2021/04/04 07:44:45;;;;;;;32.88;30.45;;;7.40;61.10;;;;;;5133146;27;20624;-77
2021/04/04 07:47:19;;;;;;;31.55;29.17;;;7.40;61.20;;;;;;5132598;28;20267;-77
2021/04/04 07:50:21;;;;;;;28.65;26.75;;;7.50;61.40;;;;;;5132325;28;20320;-77
2021/04/04 07:52:55;;;;;;;28.23;26.13;;;7.60;61.00;;;;;;5133082;28;20231;-77
2021/04/04 07:55:35;;;;;;;30.95;28.50;;;7.80;60.90;;;;;;5132843;28;20202;-77
2021/04/04 07:58:10;;;;;;;29.45;27.65;;;7.80;60.60;;;;;;5133237;28;20690;-77
2021/04/04 08:00:41;;;;;;;28.65;26.70;;;8.00;60.50;;;;;;5133125;28;20214;-77
2021/04/04 08:03:11;;;;;;;30.08;27.90;;;8.20;60.00;;;;;;5133118;28;20669;-77
2021/04/04 08:05:44;;;;;;;30.27;27.90;;;8.20;59.50;;;;;;5132108;27;20312;-77
2021/04/04 08:08:15;;;;;;;29.23;27.20;;;8.20;59.40;;;;;;5133116;28;20603;-77
2021/04/04 08:10:51;;;;;;;29.70;27.65;;;8.10;59.70;;;;;;5132823;28;20222;-77
2021/04/04 08:13:22;;;;;;;29.08;27.00;;;8.10;59.60;;;;;;5133114;28;20208;-77
2021/04/04 08:15:58;;;;;;;30.52;28.25;;;8.30;59.00;;;;;;5132613;28;20190;-76
2021/04/04 08:18:24;;;;;;;28.05;26.13;;;8.50;58.70;;;;;;5133066;28;20201;-77
2021/04/04 08:20:53;;;;;;;29.17;27.25;;;8.60;58.40;;;;;;5133143;28;20210;-77
2021/04/04 08:23:25;;;;;;;29.10;27.10;;;8.40;58.70;;;;;;5132889;28;20208;-77
2021/04/04 08:25:58;;;;;;;29.08;27.02;;;8.60;58.90;;;;;;5132646;28;20217;-76
2021/04/04 08:28:27;;;;;;;30.10;28.10;;;8.70;57.90;;;;;;5133126;28;20198;-77
2021/04/04 08:30:56;;;;;;;30.95;28.75;;;8.70;58.20;;;;;;5133089;28;20252;-77
2021/04/04 08:33:28;;;;;;;31.55;29.50;;;8.70;58.20;;;;;;5132598;28;20194;-77
2021/04/04 08:35:58;;;;;;;31.52;28.98;;;8.90;58.10;;;;;;5132402;28;20271;-77
2021/04/04 08:38:27;;;;;;;29.13;26.90;;;9.10;57.70;;;;;;5132818;28;20194;-77
2021/04/04 08:40:58;;;;;;;31.00;28.73;;;9.20;57.20;;;;;;5132669;27;20301;-77
2021/04/04 08:43:25;;;;;;;29.98;27.95;;;9.30;57.00;;;;;;5132732;28;20190;-78
2021/04/04 08:45:58;;;;;;;29.48;27.35;;;9.10;57.30;;;;;;5133490;27;20210;-77
2021/04/04 08:48:26;;;;;;;29.77;27.67;;;9.20;57.30;;;;;;5136537;27;20197;-77
2021/04/04 08:50:56;;;;;;;29.23;27.02;;;9.30;57.20;;;;;;5136508;27;20633;-77
2021/04/04 08:53:30;;;;;;;32.20;30.23;;;9.50;56.90;;;;;;5136319;27;20208;-77
2021/04/04 08:56:00;;;;;;;29.20;27.08;;;9.50;56.20;;;;;;5136192;27;20221;-77
2021/04/04 08:58:36;;;;;;;31.33;29.15;;;9.40;56.40;;;;;;5136290;27;20229;-77
2021/04/04 09:01:06;;;;;;;28.67;26.75;;;9.50;56.40;;;;;;5136115;27;20248;-77
2021/04/04 09:03:37;;;;;;;29.08;27.05;;;9.50;56.40;;;;;;5135887;27;20598;-79
2021/04/04 09:06:06;;;;;;;28.45;26.55;;;9.60;56.40;;;;;;5134990;27;20210;-77
2021/04/04 09:08:33;;;;;;;28.83;26.83;;;9.70;56.10;;;;;;5136234;27;20658;-77
2021/04/04 09:11:02;;;;;;;27.23;25.23;;;9.70;55.60;;;;;;5135714;27;20248;-77
2021/04/04 09:13:35;;;;;;;31.23;29.00;;;9.80;55.50;;;;;;5136007;27;20200;-78
2021/04/04 09:16:08;;;;;;;28.13;26.23;;;9.90;54.80;;;;;;5135471;27;20241;-77
2021/04/04 09:18:47;;;;;;;28.23;26.25;;;10.00;54.20;;;;;;5136239;27;20240;-77
2021/04/04 09:21:15;;;;;;;28.52;26.33;;;10.10;53.50;;;;;;5136430;27;20616;-77
2021/04/04 09:23:44;;;;;;;29.58;27.10;;;10.10;52.90;;;;;;5135714;27;20190;-77
2021/04/04 09:26:17;;;;;;;29.65;27.05;;;10.10;52.70;;;;;;5135263;27;20639;-80
2021/04/04 09:28:45;;;;;;;27.27;25.45;;;10.20;52.40;;;;;;5136065;27;20221;-77
2021/04/04 09:31:18;;;;;;;25.98;24.30;;;10.40;52.20;;;;;;5139603;27;20214;-77
2021/04/04 09:33:51;;;;;;;26.70;24.98;;;10.50;51.00;;;;;;5135803;27;20670;-77
2021/04/04 09:36:18;;;;;;;29.63;27.55;;;10.50;49.90;;;;;;5135501;27;20200;-77
2021/04/04 09:38:46;;;;;;;24.75;23.25;;;10.60;50.00;;;;;;5136086;27;20198;-77
2021/04/04 09:41:13;;;;;;;27.13;24.65;;;10.50;48.50;;;;;;5135630;27;20304;-77
2021/04/04 09:43:41;;;;;;;26.02;24.42;;;10.50;48.50;;;;;;5135540;27;20233;-77
2021/04/04 09:46:08;;;;;;;27.02;24.55;;;10.50;48.50;;;;;;5134898;27;20260;-78
2021/04/04 09:48:40;;;;;;;26.95;24.90;;;10.70;48.10;;;;;;5135661;27;20209;-77
2021/04/04 09:51:09;;;;;;;26.02;24.20;;;10.70;48.50;;;;;;5135535;27;20213;-77
2021/04/04 09:53:39;;;;;;;27.73;25.48;;;10.80;48.50;;;;;;5135107;27;20205;-77
2021/04/04 09:56:10;;;;;;;25.13;23.50;;;10.90;46.60;;;;;;5134444;27;20899;-77
2021/04/04 09:58:40;;;;;;;24.67;23.38;;;10.80;46.50;;;;;;5135164;27;20782;-77
2021/04/04 10:01:18;;;;;;;27.67;25.83;;;11.00;45.30;;;;;;5135229;27;20301;-77
2021/04/04 10:04:01;;;;;;;25.50;24.10;;;11.30;45.50;;;;;;5135044;27;20455;-77
2021/04/04 10:06:30;;;;;;;24.10;22.80;;;11.40;44.70;;;;;;5133793;27;20479;-77
2021/04/04 10:08:57;;;;;;;24.10;22.70;;;11.50;42.00;;;;;;5135178;27;20200;-77
2021/04/04 10:11:26;;;;;;;25.38;23.88;;;11.50;41.90;;;;;;5134817;27;20197;-77
2021/04/04 10:14:06;;;;;;;41.53;29.70;;;11.40;42.60;;;;;;5134860;27;20202;-76
2021/04/04 10:16:33;;;;;;;26.90;25.30;;;11.40;45.20;;;;;;5134138;27;20491;-77
2021/04/04 10:19:00;;;;;;;26.50;24.80;;;11.30;44.70;;;;;;5134416;27;20958;-77
2021/04/04 10:21:27;;;;;;;27.50;25.57;;;11.40;44.70;;;;;;5134852;27;20453;-77
2021/04/04 10:23:54;;;;;;;27.05;25.20;;;11.50;44.40;;;;;;5134614;27;20448;-77
2021/04/04 10:26:21;;;;;;;24.60;23.20;;;11.50;44.60;;;;;;5134090;27;20232;-77
2021/04/04 10:28:52;;;;;;;25.50;23.80;;;11.80;41.90;;;;;;5134463;27;20948;-77
2021/04/04 10:31:21;;;;;;;26.03;24.10;;;11.80;41.20;;;;;;5134498;27;20451;-78
2021/04/04 10:33:57;;;;;;;24.07;22.60;;;11.60;41.80;;;;;;5134587;27;20885;-78
2021/04/04 10:36:24;;;;;;;25.90;24.23;;;11.70;40.60;;;;;;5133879;27;20451;-77
2021/04/04 10:38:53;;;;;;;26.27;24.67;;;11.70;42.10;;;;;;5134383;27;20539;-77
2021/04/04 10:41:30;;;;;;;26.37;24.77;;;11.80;42.60;;;;;;5134174;27;20451;-78
2021/04/04 10:43:57;;;;;;;28.20;25.87;;;11.90;42.90;;;;;;5134218;27;20848;-78
2021/04/04 10:46:29;;;;;;;25.43;23.93;;;12.00;42.80;;;;;;5133620;27;20561;-77
2021/04/04 10:48:59;;;;;;;25.10;23.60;;;12.30;42.50;;;;;;5134091;27;20458;-77
2021/04/04 10:51:26;;;;;;;25.40;23.90;;;12.30;41.80;;;;;;5134175;27;20485;-77
2021/04/04 10:53:52;;;;;;;25.53;23.87;;;12.40;41.80;;;;;;5134039;27;20534;-77
2021/04/04 10:56:19;;;;;;;26.00;24.53;;;12.30;41.80;;;;;;5133410;27;20816;-77
2021/04/04 10:58:47;;;;;;;28.30;25.93;;;12.50;41.70;;;;;;5133978;27;20963;-77
2021/04/04 11:01:14;;;;;;;26.77;25.10;;;12.60;41.90;;;;;;5134161;27;20843;-77
2021/04/04 11:03:42;;;;;;;26.80;25.20;;;12.80;41.30;;;;;;5134075;27;20451;-77
2021/04/04 11:06:11;;;;;;;25.67;24.20;;;12.70;40.70;;;;;;5132962;27;20504;-77
2021/04/04 11:08:39;;;;;;;26.57;24.97;;;12.50;40.50;;;;;;5133459;27;20483;-77
2021/04/04 11:11:06;;;;;;;26.53;24.93;;;12.60;41.30;;;;;;5133752;27;20550;-78
2021/04/04 11:13:34;;;;;;;26.57;24.97;;;12.60;41.40;;;;;;5133962;27;20530;-77
2021/04/04 11:16:06;;;;;;;25.77;24.37;;;12.60;41.30;;;;;;5133172;27;20435;-77
2021/04/04 11:18:35;;;;;;;25.83;24.33;;;12.30;41.90;;;;;;5133969;27;20524;-77
2021/04/04 11:21:04;;;;;;;26.33;24.83;;;12.40;42.10;;;;;;5133629;27;20547;-77
2021/04/04 11:23:32;;;;;;;27.10;25.40;;;12.50;41.80;;;;;;5133842;27;20534;-78
2021/04/04 11:25:59;;;;;;;27.47;25.83;;;12.60;41.30;;;;;;5135845;27;20470;-77
2021/04/04 11:28:26;;;;;;;26.60;25.10;;;12.60;41.00;;;;;;5143440;27;20455;-77
2021/04/04 11:30:53;;;;;;;27.17;25.57;;;12.50;41.40;;;;;;5133636;27;20512;-77
2021/04/04 11:33:28;;;;;;;27.13;25.47;;;12.60;41.70;;;;;;5133497;27;20487;-77
2021/04/04 11:36:10;;;;;;;28.87;27.10;;;12.80;41.60;;;;;;5132936;27;20447;-77
2021/04/04 11:39:01;;;;;;;27.70;25.67;;;13.00;40.80;;;;;;5133382;27;20491;-78
2021/04/04 11:41:28;;;;;;;25.33;23.87;;;12.80;40.50;;;;;;5133208;27;20809;-77
2021/04/04 11:44:23;;;;;;;27.30;25.80;;;12.90;41.10;;;;;;5133395;27;20476;-77
2021/04/04 11:46:51;;;;;;;26.13;24.63;;;13.00;40.50;;;;;;5132719;27;20479;-77
2021/04/04 11:49:47;;;;;;;27.80;25.90;;;12.80;41.00;;;;;;5133204;28;20471;-77
2021/04/04 11:52:38;;;;;;;26.83;25.23;;;12.80;41.30;;;;;;5133385;28;20447;-77
2021/04/04 11:55:09;;;;;;;26.47;24.97;;;12.80;41.30;;;;;;5133157;28;20453;-77
2021/04/04 11:57:38;;;;;;;26.73;25.03;;;12.70;41.60;;;;;;5132709;27;20867;-78
2021/04/04 12:00:19;;;;;;;27.07;25.20;;;12.60;41.90;;;;;;5133383;28;20546;-77
2021/04/04 12:02:59;;;;;;;29.40;27.30;;;12.80;42.10;;;;;;5133068;28;20516;-78
2021/04/04 12:05:26;;;;;;;27.30;25.50;;;12.90;42.20;;;;;;5132519;28;20471;-77
2021/04/04 12:07:54;;;;;;;28.03;26.10;;;13.10;41.90;;;;;;5133477;27;20869;-77
2021/04/04 12:10:23;;;;;;;26.53;24.83;;;13.40;41.50;;;;;;5132911;28;20979;-77
2021/04/04 12:12:50;;;;;;;27.00;25.47;;;13.30;40.80;;;;;;5133205;28;20487;-78
2021/04/04 12:15:18;;;;;;;27.37;25.77;;;13.40;40.70;;;;;;5133103;27;20789;-78
2021/04/04 12:17:48;;;;;;;27.63;26.00;;;13.30;40.40;;;;;;5132823;27;20479;-77
2021/04/04 12:20:19;;;;;;;26.23;24.63;;;13.20;40.80;;;;;;5133635;27;21018;-78
2021/04/04 12:22:46;;;;;;;26.80;25.10;;;13.20;40.70;;;;;;5137257;27;20451;-78
2021/04/04 12:25:16;;;;;;;26.87;25.13;;;13.20;40.80;;;;;;5137920;27;20482;-77
2021/04/04 12:27:45;;;;;;;26.73;25.20;;;13.10;41.10;;;;;;5137516;27;20662;-78
2021/04/04 12:30:27;;;;;;;26.03;24.53;;;13.40;40.60;;;;;;5137419;27;20551;-77
2021/04/04 12:33:01;;;;;;;27.43;25.70;;;13.30;40.70;;;;;;5137159;27;20443;-77
2021/04/04 12:35:28;;;;;;;28.40;26.50;;;13.50;40.80;;;;;;5136467;27;20459;-76
2021/04/04 12:37:54;;;;;;;27.30;25.70;;;13.70;41.00;;;;;;5136881;27;20451;-77
2021/04/04 12:40:22;;;;;;;27.90;26.10;;;13.80;40.50;;;;;;5136530;27;20479;-77
2021/04/04 12:42:55;;;;;;;27.20;25.40;;;14.00;40.50;;;;;;5136752;27;20523;-78
2021/04/04 12:45:22;;;;;;;27.43;25.70;;;13.90;39.50;;;;;;5136422;27;20486;-77
2021/04/04 12:47:48;;;;;;;27.00;25.10;;;13.90;39.80;;;;;;5136310;27;20455;-77
2021/04/04 12:50:17;;;;;;;27.80;26.10;;;13.90;39.30;;;;;;5136548;27;20471;-77
2021/04/04 12:52:44;;;;;;;27.60;25.90;;;14.10;39.40;;;;;;5136307;27;20443;-78
2021/04/04 12:55:17;;;;;;;28.33;26.53;;;14.20;39.00;;;;;;5136505;27;20454;-77